Time;durP1;ratioP1;P1;durP2;ratioP2;P2;SDS_P1;SDS_P2;PMS_P1;PMS_P2;Temp;Humidity;BMP_temperature;BMP_pressure;BME280_temperature;BME280_humidity;BME280_pressure;Samples;Min_cycle;Max_cycle;Signal;HPM_P1;HPM_P2
2023/01/21 00:00:54;;;;;;;;;;;;;;;-1.10;100.00;100594.44;5084460;28;19924;-68
2023/01/21 00:03:19;;;;;;;;;;;;;;;-1.11;100.00;100594.44;5086685;28;19920;-71
2023/01/21 00:05:44;;;;;;;;;;;;;;;-1.10;100.00;100596.09;5092692;28;20418;-71
2023/01/21 00:08:09;;;;;;;;;;;;;;;-1.11;100.00;100599.50;5097981;28;19920;-71
2023/01/21 00:10:34;;;;;;;;;;;;;;;-1.15;100.00;100596.94;5100860;28;20357;-72
2023/01/21 00:13:00;;;;;;;;;;;;;;;-1.13;100.00;100607.03;5095657;28;19916;-72
2023/01/21 00:15:25;;;;;;;;;;;;;;;-1.16;100.00;100610.41;5083045;28;19920;-72
2023/01/21 00:17:51;;;;;;;;;;;;;;;-1.13;100.00;100609.56;5091506;28;19916;-72
2023/01/21 00:20:17;;;;;;;;;;;;;;;-1.12;100.00;100615.47;5084207;28;19923;-72
2023/01/21 00:22:42;;;;;;;;;;;;;;;-1.16;100.00;100612.94;5091224;28;20003;-72
2023/01/21 00:25:07;;;;;;;;;;;;;;;-1.15;100.00;100624.72;5091437;28;19916;-73
2023/01/21 00:27:32;;;;;;;;;;;;;;;-1.14;100.00;100630.63;5090655;28;21688;-73
2023/01/21 00:29:58;;;;;;;;;;;;;;;-1.17;100.00;100623.84;5089510;28;19920;-76
2023/01/21 00:32:23;;;;;;;;;;;;;;;-1.15;100.00;100634.00;5081327;28;19916;-71
2023/01/21 00:34:48;;;;;;;;;;;;;;;-1.11;100.00;100628.09;5092675;28;19927;-71
2023/01/21 00:37:13;;;;;;;;;;;;;;;-1.12;100.00;100639.03;5075047;28;20356;-71
2023/01/21 00:39:41;;;;;;;;;;;;;;;-1.13;100.00;100637.34;5086738;28;20019;-72
2023/01/21 00:42:07;;;;;;;;;;;;;;;-1.13;100.00;100647.44;5098049;28;19927;-71
2023/01/21 00:44:32;;;;;;;;;;;;;;;-1.15;100.00;100647.44;5091551;28;19916;-71
2023/01/21 00:46:57;;;;;;;;;;;;;;;-1.14;100.00;100664.28;5092525;28;19959;-71
2023/01/21 00:49:22;;;;;;;;;;;;;;;-1.14;100.00;100668.50;5092669;28;20260;-70
2023/01/21 00:51:48;;;;;;;;;;;;;;;-1.09;100.00;100666.81;5100805;28;19920;-70
2023/01/21 00:54:13;;;;;;;;;;;;;;;-1.12;100.00;100666.81;5094222;28;19947;-70
2023/01/21 00:56:38;;;;;;;;;;;;;;;-1.14;100.00;100673.56;5090784;28;19927;-70
2023/01/21 00:59:03;;;;;;;;;;;;;;;-1.12;100.00;100681.13;5078645;28;19916;-70
2023/01/21 01:01:33;;;;;;;;;;;;;;;-1.13;100.00;100685.31;5093542;28;19927;-70
2023/01/21 01:03:58;;;;;;;;;;;;;;;-1.12;100.00;100687.00;5096066;28;19923;-70
2023/01/21 01:06:23;;;;;;;;;;;;;;;-1.09;100.00;100688.69;5093010;28;20313;-69
2023/01/21 01:08:49;;;;;;;;;;;;;;;-1.15;100.00;100702.97;5096817;28;19920;-70
2023/01/21 01:11:16;;;;;;;;;;;;;;;-1.13;100.00;100702.97;5083937;28;19963;-69
2023/01/21 01:13:41;;;;;;;;;;;;;;;-1.17;100.00;100698.78;5098514;28;20349;-69
2023/01/21 01:16:07;;;;;;;;;;;;;;;-1.18;100.00;100709.69;5091872;28;20006;-69
2023/01/21 01:18:34;;;;;;;;;;;;;;;-1.15;100.00;100715.59;5092230;28;19939;-69
2023/01/21 01:20:59;;;;;;;;;;;;;;;-1.17;100.00;100722.31;5084901;28;19979;-69
2023/01/21 01:23:24;;;;;;;;;;;;;;;-1.11;100.00;100731.63;5104428;28;20392;-69
2023/01/21 01:25:53;;;;;;;;;;;;;;;-1.12;100.00;100736.66;5096165;28;19927;-71
2023/01/21 01:28:18;;;;;;;;;;;;;;;-1.09;100.00;100741.72;5095126;28;19924;-69
2023/01/21 01:30:43;;;;;;;;;;;;;;;-1.12;100.00;100750.13;5091976;28;19931;-69
2023/01/21 01:33:09;;;;;;;;;;;;;;;-1.12;100.00;100751.81;5103629;28;20663;-69
2023/01/21 01:35:34;;;;;;;;;;;;;;;-1.09;100.00;100750.16;5096283;28;19927;-69
2023/01/21 01:38:06;;;;;;;;;;;;;;;-1.11;100.00;100753.50;5111165;28;19920;-69
2023/01/21 01:40:31;;;;;;;;;;;;;;;-1.13;100.00;100761.06;5104789;28;19946;-70
2023/01/21 01:42:57;;;;;;;;;;;;;;;-1.13;100.00;100766.09;5107976;28;20419;-70
2023/01/21 01:45:22;;;;;;;;;;;;;;;-1.08;100.00;100763.59;5111970;28;19962;-70
2023/01/21 01:47:57;;;;;;;;;;;;;;;-1.09;100.00;100775.41;5095593;28;20010;-70
2023/01/21 01:50:25;;;;;;;;;;;;;;;-1.09;100.00;100779.59;5087115;28;20344;-70
2023/01/21 01:52:50;;;;;;;;;;;;;;;-1.13;100.00;100776.19;5094225;28;19985;-70
2023/01/21 01:55:15;;;;;;;;;;;;;;;-1.10;100.00;100780.41;5074469;28;20379;-70
2023/01/21 01:57:44;;;;;;;;;;;;;;;-1.12;100.00;100780.41;5093383;28;20312;-70
2023/01/21 02:00:10;;;;;;;;;;;;;;;-1.09;100.00;100787.16;5086219;28;19916;-70
2023/01/21 02:02:37;;;;;;;;;;;;;;;-1.07;100.00;100793.91;5110365;28;19930;-70
2023/01/21 02:05:04;;;;;;;;;;;;;;;-1.05;100.00;100789.72;5095815;28;20007;-70
2023/01/21 02:07:37;;;;;;;;;;;;;;;-1.04;100.00;100796.47;5098183;28;19963;-71
2023/01/21 02:10:03;;;;;;;;;;;;;;;-1.06;100.00;100795.59;5085398;28;19951;-71
2023/01/21 02:12:28;;;;;;;;;;;;;;;-1.14;100.00;100798.09;5092678;28;19963;-71
2023/01/21 02:14:53;;;;;;;;;;;;;;;-1.05;100.00;100796.47;5094499;28;19916;-71
2023/01/21 02:17:33;;;;;;;;;;;;;;;-1.10;100.00;100806.53;5094879;28;19923;-71
2023/01/21 02:20:17;;;;;;;;;;;;;;;-1.05;100.00;100801.50;5093722;28;20008;-72
2023/01/21 02:22:55;;;;;;;;;;;;;;;-1.02;100.00;100806.56;5083871;28;19921;-71
2023/01/21 02:25:20;;;;;;;;;;;;;;;-1.06;100.00;100818.31;5095255;28;19955;-71
2023/01/21 02:28:04;;;;;;;;;;;;;;;-1.09;100.00;100814.94;5094929;28;19955;-72
2023/01/21 02:30:40;;;;;;;;;;;;;;;-1.04;100.00;100815.81;5076151;28;19926;-72
2023/01/21 02:33:20;;;;;;;;;;;;;;;-1.19;100.00;100817.44;5092338;28;19975;-72
2023/01/21 02:35:53;;;;;;;;;;;;;;;-1.30;100.00;100819.88;5095212;28;19924;-72
2023/01/21 02:38:28;;;;;;;;;;;;;;;-1.31;100.00;100819.88;5094698;28;20093;-71
2023/01/21 02:41:11;;;;;;;;;;;;;;;-1.29;100.00;100820.72;5086541;28;19920;-72
2023/01/21 02:43:49;;;;;;;;;;;;;;;-1.31;100.00;100825.78;5090533;28;19916;-71
2023/01/21 02:46:21;;;;;;;;;;;;;;;-1.28;100.00;100837.56;5094159;28;19917;-72
2023/01/21 02:48:49;;;;;;;;;;;;;;;-1.28;100.00;100836.72;5094824;28;19920;-72
2023/01/21 02:51:16;;;;;;;;;;;;;;;-1.39;100.00;100845.09;5086080;28;19924;-72
2023/01/21 02:53:42;;;;;;;;;;;;;;;-1.43;100.00;100848.41;5100927;28;20450;-71
2023/01/21 02:56:10;;;;;;;;;;;;;;;-1.43;100.00;100850.94;5093843;28;20018;-71
2023/01/21 02:58:38;;;;;;;;;;;;;;;-1.50;100.00;100855.09;5081713;28;19929;-71
2023/01/21 03:01:09;;;;;;;;;;;;;;;-1.50;100.00;100860.16;5084066;28;19920;-70
2023/01/21 03:03:47;;;;;;;;;;;;;;;-1.50;100.00;100856.75;5093072;28;19916;-69
2023/01/21 03:06:25;;;;;;;;;;;;;;;-1.58;100.00;100858.41;5092890;28;19923;-68
2023/01/21 03:08:52;;;;;;;;;;;;;;;-1.64;100.00;100859.19;5088236;28;19920;-68
2023/01/21 03:11:18;;;;;;;;;;;;;;;-1.67;100.00;100856.66;5093853;28;20030;-68
2023/01/21 03:16:56;;;;;;;;;;;;;;;-1.77;100.00;100867.47;5093641;28;19969;-69
2023/01/21 03:19:45;;;;;;;;;;;;;;;-1.80;100.00;100865.78;5093214;28;19923;-68
2023/01/21 03:22:13;;;;;;;;;;;;;;;-1.87;100.00;100874.13;5073087;28;19946;-69
2023/01/21 03:24:41;;;;;;;;;;;;;;;-1.99;100.00;100875.69;5072672;28;19920;-69
2023/01/21 03:27:08;;;;;;;;;;;;;;;-2.08;100.00;100872.22;5108962;28;19923;-69
2023/01/21 03:29:37;;;;;;;;;;;;;;;-2.08;100.00;100875.63;5092752;28;19965;-69
2023/01/21 03:32:05;;;;;;;;;;;;;;;-2.24;100.00;100871.25;5099356;28;20004;-69
2023/01/21 03:34:33;;;;;;;;;;;;;;;-2.26;100.00;100871.22;5092585;28;19935;-74
2023/01/21 03:37:05;;;;;;;;;;;;;;;-2.33;100.00;100874.50;5093324;28;19966;-68
2023/01/21 03:39:39;;;;;;;;;;;;;;;-2.33;100.00;100885.44;5092348;28;19994;-70
2023/01/21 03:42:05;;;;;;;;;;;;;;;-2.35;100.00;100888.78;5098934;28;19919;-67
2023/01/21 03:44:30;;;;;;;;;;;;;;;-2.36;100.00;100889.59;5093115;28;20006;-68
2023/01/21 03:47:10;;;;;;;;;;;;;;;-2.42;100.00;100889.53;5093315;28;20397;-68
2023/01/21 03:49:38;;;;;;;;;;;;;;;-2.48;100.00;100885.25;5082600;28;19932;-68
2023/01/21 03:52:05;;;;;;;;;;;;;;;-2.51;100.00;100887.75;5093236;28;19920;-68
2023/01/21 03:54:30;;;;;;;;;;;;;;;-2.51;100.00;100891.09;5092256;28;20378;-69
2023/01/21 03:56:55;;;;;;;;;;;;;;;-2.51;100.00;100892.78;5093198;28;19973;-68
2023/01/21 03:59:20;;;;;;;;;;;;;;;-2.60;100.00;100889.31;5093433;28;19916;-68
2023/01/21 04:01:45;;;;;;;;;;;;;;;-2.62;100.00;100897.69;5071705;28;20021;-67
2023/01/21 04:04:11;;;;;;;;;;;;;;;-2.68;100.00;100895.09;5092709;28;19916;-67
2023/01/21 04:06:36;;;;;;;;;;;;;;;-2.71;100.00;100897.59;5095141;28;19923;-66
2023/01/21 04:09:05;;;;;;;;;;;;;;;-2.71;100.00;100905.97;5095401;28;19916;-66
2023/01/21 04:11:30;;;;;;;;;;;;;;;-2.78;100.00;100909.22;5094500;28;19923;-66
2023/01/21 04:13:55;;;;;;;;;;;;;;;-2.81;100.00;100911.72;5091667;28;19920;-65
2023/01/21 04:16:21;;;;;;;;;;;;;;;-2.86;100.00;100906.63;5100261;28;19920;-67
2023/01/21 04:18:46;;;;;;;;;;;;;;;-2.93;100.00;100915.78;5098359;28;19923;-65
2023/01/21 04:21:11;;;;;;;;;;;;;;;-2.95;100.00;100922.44;5084717;28;19927;-65
2023/01/21 04:23:37;;;;;;;;;;;;;;;-2.97;100.00;100920.72;5099535;28;19917;-64
2023/01/21 04:26:02;;;;;;;;;;;;;;;-3.03;100.00;100918.97;5092433;28;20398;-64
2023/01/21 04:28:27;;;;;;;;;;;;;;;-3.06;100.00;100923.09;5092731;28;20015;-64
2023/01/21 04:30:52;;;;;;;;;;;;;;;-3.10;100.00;100923.06;5089066;28;19920;-63
2023/01/21 04:33:17;;;;;;;;;;;;;;;-3.07;100.00;100927.31;5091104;28;19916;-64
2023/01/21 04:35:42;;;;;;;;;;;;;;;-3.13;100.00;100937.28;5093114;28;19920;-64
2023/01/21 04:38:08;;;;;;;;;;;;;;;-3.16;100.00;100934.69;5091642;28;19916;-64
2023/01/21 04:40:33;;;;;;;;;;;;;;;-3.10;100.00;100932.28;5084393;28;19948;-64
2023/01/21 04:42:58;;;;;;;;;;;;;;;-3.12;100.00;100932.25;5104156;28;19922;-65
2023/01/21 04:45:23;;;;;;;;;;;;;;;-3.17;100.00;100928.00;5091309;28;20421;-64
2023/01/21 04:47:48;;;;;;;;;;;;;;;-3.20;100.00;100946.41;5091753;28;19955;-64
2023/01/21 04:50:14;;;;;;;;;;;;;;;-3.23;100.00;100940.47;5083772;28;19916;-64
2023/01/21 04:52:40;;;;;;;;;;;;;;;-3.23;100.00;100940.47;5091256;28;19924;-64
2023/01/21 04:55:07;;;;;;;;;;;;;;;-3.31;100.00;100948.75;5092170;28;19953;-65
2023/01/21 04:57:32;;;;;;;;;;;;;;;-3.30;100.00;100949.59;5107771;28;20022;-64
2023/01/21 04:59:58;;;;;;;;;;;;;;;-3.28;100.00;100942.91;5092222;28;19916;-65
2023/01/21 05:02:23;;;;;;;;;;;;;;;-3.30;100.00;100950.44;5097780;28;19920;-64
2023/01/21 05:04:48;;;;;;;;;;;;;;;-3.34;100.00;100958.75;5091139;28;19923;-64
2023/01/21 05:07:13;;;;;;;;;;;;;;;-3.33;100.00;100957.09;5096715;28;19915;-65
2023/01/21 05:09:39;;;;;;;;;;;;;;;-3.34;100.00;100960.44;5092466;28;19916;-65
2023/01/21 05:12:04;;;;;;;;;;;;;;;-3.35;100.00;100969.66;5097329;28;19920;-66
2023/01/21 05:14:29;;;;;;;;;;;;;;;-3.34;100.00;100958.75;5092260;28;19920;-65
2023/01/21 05:16:54;;;;;;;;;;;;;;;-3.44;100.00;100966.97;5091395;28;19989;-65
2023/01/21 05:19:19;;;;;;;;;;;;;;;-3.39;100.00;100960.34;5092464;28;19920;-65
2023/01/21 05:21:45;;;;;;;;;;;;;;;-3.33;100.00;100967.16;5095048;28;19955;-65
2023/01/21 05:24:10;;;;;;;;;;;;;;;-3.40;100.00;100973.75;5094818;28;20011;-65
2023/01/21 05:26:35;;;;;;;;;;;;;;;-3.33;100.00;100972.19;5091760;28;19969;-69
2023/01/21 05:29:00;;;;;;;;;;;;;;;-3.39;100.00;100975.44;5092616;28;19916;-68
2023/01/21 05:31:26;;;;;;;;;;;;;;;-3.45;100.00;100976.22;5092634;28;20007;-67
2023/01/21 05:33:51;;;;;;;;;;;;;;;-3.46;100.00;100979.53;5096580;28;19924;-67
2023/01/21 05:36:16;;;;;;;;;;;;;;;-3.55;100.00;100981.88;5090245;28;19939;-66
2023/01/21 05:38:41;;;;;;;;;;;;;;;-3.52;100.00;100989.50;5090612;28;19932;-66
2023/01/21 05:41:06;;;;;;;;;;;;;;;-3.58;100.00;100986.88;5089997;28;19967;-66
2023/01/21 05:43:32;;;;;;;;;;;;;;;-3.63;100.00;100996.84;5099327;28;19969;-64
2023/01/21 05:45:57;;;;;;;;;;;;;;;-3.62;100.00;100992.63;5091132;28;19961;-65
2023/01/21 05:48:22;;;;;;;;;;;;;;;-3.66;100.00;100995.94;5091856;28;19927;-65
2023/01/21 05:50:48;;;;;;;;;;;;;;;-3.67;100.00;101001.78;5087462;28;19977;-65
2023/01/21 05:53:13;;;;;;;;;;;;;;;-3.68;100.00;101007.63;5101730;28;19923;-64
2023/01/21 05:55:38;;;;;;;;;;;;;;;-3.64;100.00;100997.66;5091703;28;19922;-65
2023/01/21 05:58:04;;;;;;;;;;;;;;;-3.70;100.00;101001.72;5083794;28;19923;-64
2023/01/21 06:00:30;;;;;;;;;;;;;;;-3.75;100.00;101006.66;5078681;28;19920;-65
2023/01/21 06:02:55;;;;;;;;;;;;;;;-3.79;100.00;101003.25;5103954;28;19920;-64
2023/01/21 06:05:20;;;;;;;;;;;;;;;-3.78;100.00;101006.63;5091889;28;19965;-67
2023/01/21 06:07:45;;;;;;;;;;;;;;;-3.83;100.00;101011.56;5098164;28;19927;-68
2023/01/21 06:10:11;;;;;;;;;;;;;;;-3.84;100.00;101012.38;5086069;28;19934;-65
2023/01/21 06:12:36;;;;;;;;;;;;;;;-3.83;100.00;101011.56;5093928;28;19924;-65
2023/01/21 06:15:01;;;;;;;;;;;;;;;-3.83;100.00;101019.09;5095557;28;19916;-66
2023/01/21 06:17:26;;;;;;;;;;;;;;;-3.87;100.00;101012.28;5094613;28;20295;-65
2023/01/21 06:19:51;;;;;;;;;;;;;;;-3.93;100.00;101013.03;5095351;28;20299;-65
2023/01/21 06:22:17;;;;;;;;;;;;;;;-3.99;100.00;101015.44;5100473;28;19927;-65
2023/01/21 06:24:42;;;;;;;;;;;;;;;-4.06;100.00;101021.16;5095396;28;20015;-64
2023/01/21 06:27:07;;;;;;;;;;;;;;;-4.07;100.00;101025.34;5094557;28;20355;-64
2023/01/21 06:29:32;;;;;;;;;;;;;;;-4.09;100.00;101019.44;5095449;28;20422;-64
2023/01/21 06:31:57;;;;;;;;;;;;;;;-4.19;100.00;101030.13;5099210;28;19920;-64
2023/01/21 06:34:22;;;;;;;;;;;;;;;-4.22;100.00;101028.38;5095983;28;19921;-64
2023/01/21 06:36:48;;;;;;;;;;;;;;;-4.23;100.00;101029.19;5094435;28;20003;-64
2023/01/21 06:39:13;;;;;;;;;;;;;;;-4.35;100.00;101031.44;5092000;28;19920;-64
2023/01/21 06:41:38;;;;;;;;;;;;;;;-4.31;100.00;101028.19;5096819;28;19970;-64
2023/01/21 06:44:03;;;;;;;;;;;;;;;-4.39;100.00;101033.03;5093258;28;19923;-64
2023/01/21 06:46:28;;;;;;;;;;;;;;;-4.67;100.00;101038.28;5094067;28;20424;-64
2023/01/21 06:48:54;;;;;;;;;;;;;;;-4.77;100.00;101043.06;5094998;28;20006;-62
2023/01/21 06:51:19;;;;;;;;;;;;;;;-4.94;100.00;101045.16;5088258;28;20018;-64
2023/01/21 06:53:44;;;;;;;;;;;;;;;-5.06;100.00;101047.38;5097305;28;19962;-64
2023/01/21 06:56:09;;;;;;;;;;;;;;;-5.22;100.00;101053.66;5085730;28;20446;-64
2023/01/21 06:58:34;;;;;;;;;;;;;;;-5.28;100.00;101053.53;5093361;28;19924;-64
2023/01/21 07:01:00;;;;;;;;;;;;;;;-5.32;100.00;101061.75;5091572;28;19946;-64
2023/01/21 07:03:25;;;;;;;;;;;;;;;-5.33;100.00;101063.44;5102714;28;19924;-64
2023/01/21 07:05:50;;;;;;;;;;;;;;;-5.41;100.00;101065.75;5093766;28;19920;-78
2023/01/21 07:08:15;;;;;;;;;;;;;;;-5.35;100.00;101067.56;5099403;28;19931;-66
2023/01/21 07:10:41;;;;;;;;;;;;;;;-5.37;100.00;101067.53;5087783;28;19964;-66
2023/01/21 07:13:06;;;;;;;;;;;;;;;-5.42;100.00;101070.69;5104901;28;19924;-65
2023/01/21 07:15:31;;;;;;;;;;;;;;;-5.39;100.00;101068.28;5093854;28;20383;-68
2023/01/21 07:17:56;;;;;;;;;;;;;;;-5.40;100.00;101069.09;5093344;28;19916;-65
2023/01/21 07:20:21;;;;;;;;;;;;;;;-5.37;100.00;101079.19;5085263;28;20424;-64
2023/01/21 07:22:47;;;;;;;;;;;;;;;-5.36;100.00;101070.88;5107133;28;19916;-65
2023/01/21 07:25:12;;;;;;;;;;;;;;;-5.32;100.00;101082.69;5109421;28;19969;-64
2023/01/21 07:27:37;;;;;;;;;;;;;;;-5.32;100.00;101081.81;5109119;28;19916;-64
2023/01/21 07:30:02;;;;;;;;;;;;;;;-5.31;100.00;101079.34;5087070;28;19970;-65
2023/01/21 07:32:27;;;;;;;;;;;;;;;-5.29;100.00;101085.28;5105304;28;19999;-63
2023/01/21 07:34:53;;;;;;;;;;;;;;;-5.28;100.00;101084.47;5093370;28;20319;-62
2023/01/21 07:37:18;;;;;;;;;;;;;;;-5.23;100.00;101092.97;5093342;28;20007;-63
2023/01/21 07:39:43;;;;;;;;;;;;;;;-5.23;100.00;101103.00;5093321;28;19927;-62
2023/01/21 07:42:09;;;;;;;;;;;;;;;-5.25;100.00;101099.59;5098592;28;19920;-63
2023/01/21 07:44:34;;;;;;;;;;;;;;;-5.23;100.00;101110.50;5093285;28;19916;-65
2023/01/21 07:46:59;;;;;;;;;;;;;;;-5.22;100.00;101106.34;5092747;28;19923;-66
2023/01/21 07:49:25;;;;;;;;;;;;;;;-5.14;100.00;101119.09;5093176;28;19924;-66
2023/01/21 07:51:54;;;;;;;;;;;;;;;-5.12;100.00;101110.81;5097095;28;19947;-80
2023/01/21 07:54:19;;;;;;;;;;;;;;;-5.08;100.00;101119.25;5091764;28;20405;-65
2023/01/21 07:56:44;;;;;;;;;;;;;;;-4.98;100.00;101122.88;5091499;28;19920;-66
2023/01/21 07:59:12;;;;;;;;;;;;;;;-4.88;100.00;101113.06;5079385;28;20003;-67
2023/01/21 08:01:37;;;;;;;;;;;;;;;-4.76;100.00;101124.25;5071540;28;19920;-66
2023/01/21 08:04:02;;;;;;;;;;;;;;;-4.65;100.00;101119.47;5092609;28;19916;-65
2023/01/21 08:06:27;;;;;;;;;;;;;;;-4.63;100.00;101123.72;5093861;28;19980;-65
2023/01/21 08:08:52;;;;;;;;;;;;;;;-4.50;100.00;101116.47;5094066;28;20914;-66
2023/01/21 08:11:18;;;;;;;;;;;;;;;-4.48;100.00;101120.72;5071313;28;20009;-66
2023/01/21 08:13:43;;;;;;;;;;;;;;;-4.38;100.00;101121.78;5065810;28;20305;-67
2023/01/21 08:16:10;;;;;;;;;;;;;;;-4.25;100.00;101122.94;5059179;28;20648;-63
2023/01/21 08:18:36;;;;;;;;;;;;;;;-4.22;100.00;101120.47;5068201;28;19928;-63
2023/01/21 08:21:01;;;;;;;;;;;;;;;-4.22;100.00;101121.34;5058596;28;19938;-65
2023/01/21 08:23:26;;;;;;;;;;;;;;;-4.06;100.00;101120.03;5071089;28;20414;-65
2023/01/21 08:25:52;;;;;;;;;;;;;;;-3.99;100.00;101123.50;5060987;28;20023;-67
2023/01/21 08:28:17;;;;;;;;;;;;;;;-3.76;100.00;101128.16;5068434;28;20437;-66
2023/01/21 08:30:42;;;;;;;;;;;;;;;-3.47;100.00;101128.78;5046960;28;20421;-66
2023/01/21 08:33:08;;;;;;;;;;;;;;;-3.38;100.00;101125.59;5070792;28;20407;-66
2023/01/21 08:35:33;;;;;;;;;;;;;;;-3.34;100.00;101137.41;5053534;28;20269;-65
2023/01/21 08:37:58;;;;;;;;;;;;;;;-3.20;100.00;101126.75;5061005;28;19917;-64
2023/01/21 08:40:25;;;;;;;;;;;;;;;-3.21;100.00;101130.06;5047346;28;19928;-66
2023/01/21 08:42:51;;;;;;;;;;;;;;;-3.17;100.00;101134.38;5075035;28;20343;-68
2023/01/21 08:45:16;;;;;;;;;;;;;;;-3.12;100.00;101128.59;5062656;28;19931;-68
2023/01/21 08:47:41;;;;;;;;;;;;;;;-3.01;100.00;101132.97;5057728;28;19916;-62
2023/01/21 08:50:08;;;;;;;;;;;;;;;-2.88;100.00;101134.88;5062480;28;20365;-62
2023/01/21 08:52:33;;;;;;;;;;;;;;;-2.79;100.00;101130.00;5084320;28;19939;-65
2023/01/21 08:54:58;;;;;;;;;;;;;;;-2.66;100.00;101126.00;5065128;28;20339;-66
2023/01/21 08:57:25;;;;;;;;;;;;;;;-2.50;100.00;101129.63;5055907;28;19921;-66
2023/01/21 08:59:50;;;;;;;;;;;;;;;-2.22;100.00;101130.06;5053394;28;19923;-60
2023/01/21 09:02:15;;;;;;;;;;;;;;;-2.08;100.00;101130.25;5074102;28;19928;-66
2023/01/21 09:04:40;;;;;;;;;;;;;;;-1.93;100.00;101136.31;5070682;28;19928;-68
2023/01/21 09:07:06;;;;;;;;;;;;;;;-1.80;100.00;101135.66;5073094;28;19927;-68
2023/01/21 09:09:31;;;;;;;;;;;;;;;-1.68;100.00;101135.81;5069701;28;20003;-66
2023/01/21 09:11:56;;;;;;;;;;;;;;;-1.80;100.00;101134.00;5076254;28;19927;-66
2023/01/21 09:14:22;;;;;;;;;;;;;;;-1.66;100.00;101136.69;5073020;28;19939;-65
2023/01/21 09:16:48;;;;;;;;;;;;;;;-1.54;100.00;101138.53;5071479;28;19966;-66
2023/01/21 09:19:13;;;;;;;;;;;;;;;-1.28;100.00;101132.09;5070876;28;19916;-66
2023/01/21 09:21:39;;;;;;;;;;;;;;;-1.18;100.00;101144.84;5073869;28;19927;-66
2023/01/21 09:24:04;;;;;;;;;;;;;;;-1.05;100.00;101145.78;5070655;28;19927;-66
2023/01/21 09:26:29;;;;;;;;;;;;;;;-1.01;100.00;101142.47;5056840;28;19995;-67
2023/01/21 09:28:59;;;;;;;;;;;;;;;-1.22;100.00;101155.72;5070338;28;19920;-66
2023/01/21 09:31:25;;;;;;;;;;;;;;;-1.26;100.00;101155.69;5063427;28;20003;-66
2023/01/21 09:33:51;;;;;;;;;;;;;;;-1.19;100.00;101154.88;5076453;28;19962;-69
2023/01/21 09:36:18;;;;;;;;;;;;;;;-1.18;100.00;101157.47;5065509;28;20008;-71
2023/01/21 09:38:44;;;;;;;;;;;;;;;-0.93;100.00;101167.81;5053525;28;19927;-66
2023/01/21 09:41:28;;;;;;;;;;;;;;;-1.01;100.00;101165.19;5059541;28;19947;-67
2023/01/21 09:43:58;;;;;;;;;;;;;;;-0.82;100.00;101165.38;5059894;28;20381;-66
2023/01/21 09:46:29;;;;;;;;;;;;;;;-0.40;100.00;101170.78;5060361;28;19948;-69
2023/01/21 09:48:54;;;;;;;;;;;;;;;-0.30;100.00;101167.50;5075463;28;19926;-69
2023/01/21 09:51:24;;;;;;;;;;;;;;;0.32;100.00;101170.41;5050702;28;20007;-68
2023/01/21 09:53:51;;;;;;;;;;;;;;;0.13;100.00;101177.06;5068828;28;20015;-68
2023/01/21 09:56:26;;;;;;;;;;;;;;;-0.32;100.00;101174.25;5063415;28;20372;-65
2023/01/21 09:58:57;;;;;;;;;;;;;;;-0.55;100.00;101174.88;5073840;28;20003;-70
2023/01/21 10:01:27;;;;;;;;;;;;;;;-0.56;100.00;101179.94;5070263;28;19920;-70
2023/01/21 10:04:10;;;;;;;;;;;;;;;-0.52;100.00;101174.06;5073422;28;20275;-69
2023/01/21 10:06:39;;;;;;;;;;;;;;;-0.67;100.00;101173.13;5068687;28;19917;-69
2023/01/21 10:09:07;;;;;;;;;;;;;;;-0.45;100.00;101172.44;5063715;28;20015;-70
2023/01/21 10:11:56;;;;;;;;;;;;;;;-0.32;100.00;101176.78;5060500;28;20011;-70
2023/01/21 10:14:34;;;;;;;;;;;;;;;-0.43;100.00;101174.16;5073046;28;19921;-71
2023/01/21 10:16:59;;;;;;;;;;;;;;;-0.50;100.00;101175.78;5063191;28;19920;-71
2023/01/21 10:19:29;;;;;;;;;;;;;;;-0.65;100.00;101186.59;5075118;28;19920;-70
2023/01/21 10:21:59;;;;;;;;;;;;;;;-0.77;100.00;101181.44;5066697;28;19976;-70
2023/01/21 10:24:27;;;;;;;;;;;;;;;-0.84;100.00;101187.25;5080800;28;20311;-72
2023/01/21 10:26:53;;;;;;;;;;;;;;;-0.84;100.00;101190.63;5073772;28;19920;-70
2023/01/21 10:29:21;;;;;;;;;;;;;;;-0.80;100.00;101183.94;5073450;28;19962;-71
2023/01/21 10:31:53;;;;;;;;;;;;;;;-0.92;100.00;101186.34;5077935;28;19951;-73
2023/01/21 10:34:19;;;;;;;;;;;;;;;-1.08;100.00;101182.78;5073718;28;19923;-72
2023/01/21 10:36:44;;;;;;;;;;;;;;;-0.97;100.00;101181.22;5074083;28;20358;-73
2023/01/21 10:39:33;;;;;;;;;;;;;;;-1.00;100.00;101181.22;5073321;28;20390;-72
2023/01/21 10:42:04;;;;;;;;;;;;;;;-0.95;100.00;101179.56;5072036;28;20414;-71
2023/01/21 10:44:47;;;;;;;;;;;;;;;-0.88;100.00;101181.34;5074687;28;20310;-71
2023/01/21 10:47:12;;;;;;;;;;;;;;;-0.97;100.00;101181.22;5070662;28;19966;-71
2023/01/21 10:49:44;;;;;;;;;;;;;;;-0.84;100.00;101175.47;5073146;28;19916;-71
2023/01/21 10:52:12;;;;;;;;;;;;;;;-1.13;100.00;101182.72;5073263;28;19920;-71
2023/01/21 10:54:47;;;;;;;;;;;;;;;-1.31;100.00;101181.69;5088501;28;19920;-70
2023/01/21 10:57:30;;;;;;;;;;;;;;;-1.21;100.00;101181.81;5073393;28;20261;-71
2023/01/21 10:59:57;;;;;;;;;;;;;;;-1.11;100.00;101186.13;5073772;28;19962;-71
2023/01/21 11:02:28;;;;;;;;;;;;;;;-1.13;100.00;101175.16;5078984;28;19924;-71
2023/01/21 11:04:57;;;;;;;;;;;;;;;-1.10;100.00;101184.44;5074121;28;20007;-71
2023/01/21 11:07:23;;;;;;;;;;;;;;;-1.19;100.00;101183.53;5078434;28;19916;-71
2023/01/21 11:09:49;;;;;;;;;;;;;;;-1.09;100.00;101183.63;5074320;28;20006;-70
2023/01/21 11:12:16;;;;;;;;;;;;;;;-1.06;100.00;101188.72;5063439;28;20431;-70
2023/01/21 11:14:45;;;;;;;;;;;;;;;-0.95;100.00;101179.56;5074349;28;20019;-70
2023/01/21 11:17:10;;;;;;;;;;;;;;;-0.83;100.00;101183.91;5071897;28;19959;-70
2023/01/21 11:19:35;;;;;;;;;;;;;;;-0.73;100.00;101183.16;5074313;28;19956;-70
2023/01/21 11:22:12;;;;;;;;;;;;;;;-0.79;100.00;101183.09;5078289;28;20017;-69
2023/01/21 11:24:42;;;;;;;;;;;;;;;-0.62;100.00;101187.47;5073903;28;20006;-70
2023/01/21 11:27:16;;;;;;;;;;;;;;;-0.49;100.00;101189.25;5073206;28;19920;-70
2023/01/21 11:29:41;;;;;;;;;;;;;;;-0.53;100.00;101190.91;5073705;28;19956;-70
2023/01/21 11:32:16;;;;;;;;;;;;;;;-0.61;100.00;101192.53;5078892;28;20388;-69
2023/01/21 11:34:45;;;;;;;;;;;;;;;-0.72;100.00;101194.97;5075218;28;19920;-70
2023/01/21 11:37:19;;;;;;;;;;;;;;;-0.66;100.00;101189.97;5073138;28;19916;-69
2023/01/21 11:39:54;;;;;;;;;;;;;;;-0.58;100.00;101186.63;5073190;28;19920;-69
2023/01/21 11:42:20;;;;;;;;;;;;;;;-0.62;100.00;101203.50;5062694;28;20314;-70
2023/01/21 11:44:49;;;;;;;;;;;;;;;-0.75;100.00;101194.91;5073151;28;19916;-69
2023/01/21 11:47:32;;;;;;;;;;;;;;;-0.77;100.00;101198.28;5073139;28;19917;-69
2023/01/21 11:50:02;;;;;;;;;;;;;;;-0.58;100.00;101195.09;5075703;28;20320;-70
2023/01/21 11:52:27;;;;;;;;;;;;;;;-0.57;100.00;101198.44;5061943;28;20303;-70
2023/01/21 11:54:52;;;;;;;;;;;;;;;-0.66;100.00;101201.75;5073135;28;19924;-70
2023/01/21 11:57:23;;;;;;;;;;;;;;;-0.66;100.00;101205.13;5072667;28;20291;-70
2023/01/21 11:59:49;;;;;;;;;;;;;;;-0.70;100.00;101200.03;5073182;28;19916;-69
2023/01/21 12:02:29;;;;;;;;;;;;;;;-0.73;100.00;101198.31;5067386;28;20297;-67
2023/01/21 12:04:57;;;;;;;;;;;;;;;-0.71;100.00;101198.31;5083146;28;20027;-69
2023/01/21 12:07:28;;;;;;;;;;;;;;;-0.63;100.00;101196.72;5097129;28;20383;-69
2023/01/21 12:10:14;;;;;;;;;;;;;;;-0.51;100.00;101201.03;5093229;28;20003;-68
2023/01/21 12:12:57;;;;;;;;;;;;;;;-0.46;100.00;101199.38;5077680;28;19921;-69
2023/01/21 12:15:40;;;;;;;;;;;;;;;-0.46;100.00;101196.84;5081687;28;19958;-68
2023/01/21 12:18:32;;;;;;;;;;;;;;;-0.44;100.00;101187.63;5091156;28;19955;-68
2023/01/21 12:21:23;;;;;;;;;;;;;;;-0.31;100.00;101186.06;5073237;28;19920;-69
2023/01/21 12:23:48;;;;;;;;;;;;;;;-0.23;100.00;101184.41;5050023;28;19924;-67
2023/01/21 12:26:29;;;;;;;;;;;;;;;-0.46;100.00;101180.84;5049653;28;19992;-66
2023/01/21 12:29:01;;;;;;;;;;;;;;;-0.56;100.00;101195.09;5050484;28;19992;-67
2023/01/21 12:31:33;;;;;;;;;;;;;;;-0.63;100.00;101191.69;5039855;28;19929;-69
2023/01/21 12:34:14;;;;;;;;;;;;;;;-0.43;100.00;101188.47;5049834;28;20146;-67